Time;durP1;ratioP1;P1;durP2;ratioP2;P2;SDS_P1;SDS_P2;PMS_P1;PMS_P2;Temp;Humidity;BMP_temperature;BMP_pressure;BME280_temperature;BME280_humidity;BME280_pressure;Samples;Min_cycle;Max_cycle;Signal;HPM_P1;HPM_P2
2021/08/29 00:00:41;;;;;;;;;7.00;5.67;;;;;18.46;57.27;101905.91;5146055;27;44802;-90
2021/08/29 00:03:07;;;;;;;;;6.00;6.00;;;;;18.61;57.31;101926.31;5129225;27;45574;-90
2021/08/29 00:05:34;;;;;;;;;5.33;5.00;;;;;18.50;57.26;101909.44;5143684;27;45489;-91
2021/08/29 00:08:00;;;;;;;;;10.33;5.67;;;;;18.56;57.35;101913.91;5088928;27;45386;-91
2021/08/29 00:10:25;;;;;;;;;9.33;8.00;;;;;18.51;57.56;101913.88;5088929;27;45474;-91
2021/08/29 00:12:51;;;;;;;;;6.67;5.00;;;;;18.43;57.71;101899.66;5090187;27;47220;-90
2021/08/29 00:15:19;;;;;;;;;5.00;5.00;;;;;18.33;57.29;101883.66;5092976;27;45238;-89
2021/08/29 00:17:45;;;;;;;;;7.67;7.67;;;;;18.50;57.70;101914.78;5132864;27;45255;-90
2021/08/29 00:20:11;;;;;;;;;7.00;3.00;;;;;18.32;57.68;101887.19;5119235;27;45462;-91
2021/08/29 00:22:37;;;;;;;;;6.33;5.33;;;;;18.37;57.76;101898.75;5116536;27;46404;-90
2021/08/29 00:25:07;;;;;;;;;7.33;6.33;;;;;18.30;57.75;101882.78;5096857;27;45416;-90
2021/08/29 00:27:32;;;;;;;;;6.33;5.00;;;;;18.28;57.76;101883.66;5101391;27;45342;-90
2021/08/29 00:29:58;;;;;;;;;6.00;6.00;;;;;18.42;57.79;101908.53;5102285;27;45206;-92
2021/08/29 00:32:24;;;;;;;;;8.00;3.67;;;;;18.18;58.18;101873.84;5103391;27;47098;-90
2021/08/29 00:34:51;;;;;;;;;7.33;5.67;;;;;18.30;58.14;101902.28;5105263;27;44931;-88
2021/08/29 00:37:16;;;;;;;;;6.00;4.67;;;;;18.20;58.24;101892.47;5102747;27;45304;-89
2021/08/29 00:39:42;;;;;;;;;8.00;6.00;;;;;18.12;58.23;101879.13;5102507;27;45449;-89
2021/08/29 00:42:10;;;;;;;;;5.67;5.00;;;;;18.16;58.33;101888.88;5117459;27;45657;-90
2021/08/29 00:44:37;;;;;;;;;8.33;6.33;;;;;18.08;58.44;101877.31;5133639;27;45201;-91
2021/08/29 00:47:05;;;;;;;;;6.00;4.67;;;;;18.18;58.35;101900.47;5138060;27;45361;-90
2021/08/29 00:49:30;;;;;;;;;7.33;6.00;;;;;18.22;58.46;101909.34;5104753;27;45197;-89
2021/08/29 00:52:00;;;;;;;;;8.00;6.33;;;;;18.05;58.61;101878.19;5103996;27;48358;-90
2021/08/29 00:54:29;;;;;;;;;6.33;5.00;;;;;18.21;58.76;101904.91;5119381;27;44858;-90
2021/08/29 00:56:55;;;;;;;;;8.00;7.00;;;;;18.10;58.56;101881.78;5088945;27;45270;-90
2021/08/29 00:59:26;;;;;;;;;8.67;5.00;;;;;18.17;58.72;101899.56;5102542;27;45198;-91
2021/08/29 01:02:12;;;;;;;;;8.00;6.00;;;;;18.15;58.84;101895.97;5102136;27;46626;-89
2021/08/29 01:04:49;;;;;;;;;6.00;4.67;;;;;17.96;59.04;101867.53;5103163;27;45287;-89
2021/08/29 01:07:22;;;;;;;;;9.33;5.00;;;;;17.99;59.06;101873.75;5084195;27;45288;-89
2021/08/29 01:09:59;;;;;;;;;6.00;4.33;;;;;18.13;59.06;101900.41;5102593;27;45286;-90
2021/08/29 01:12:29;;;;;;;;;8.00;6.67;;;;;18.06;58.97;101874.66;5105582;27;45423;-90
2021/08/29 01:14:56;;;;;;;;;5.33;5.00;;;;;18.11;59.08;101902.16;5122135;27;45372;-90
2021/08/29 01:17:27;;;;;;;;;8.67;5.67;;;;;18.06;59.45;101886.16;5086337;27;45221;-90
2021/08/29 01:20:14;;;;;;;;;8.67;7.00;;;;;18.11;59.18;101895.94;5118429;27;45479;-90
2021/08/29 01:22:42;;;;;;;;;8.33;5.00;;;;;17.99;58.99;101883.47;5101942;27;46212;-90
2021/08/29 01:25:11;;;;;;;;;11.00;7.00;;;;;17.95;59.22;101869.28;5101347;27;45242;-90
2021/08/29 01:27:55;;;;;;;;;5.00;5.00;;;;;17.99;59.22;101873.75;5084269;27;45429;-90
2021/08/29 01:30:21;;;;;;;;;6.33;5.33;;;;;18.12;59.62;101892.41;5084576;27;45412;-89
2021/08/29 01:32:47;;;;;;;;;8.00;5.67;;;;;18.07;59.21;101887.06;5119322;27;47026;-90
2021/08/29 01:35:14;;;;;;;;;8.67;7.67;;;;;18.01;59.43;101879.06;5096617;27;45261;-89
2021/08/29 01:37:40;;;;;;;;;6.67;6.67;;;;;18.07;59.37;101889.72;5103138;27;45299;-89
2021/08/29 01:40:09;;;;;;;;;6.00;6.00;;;;;18.11;59.63;101899.50;5103259;27;44864;-90
2021/08/29 01:42:37;;;;;;;;;6.00;6.00;;;;;18.04;59.63;101884.41;5084881;27;47151;-90
2021/08/29 01:45:03;;;;;;;;;6.00;5.33;;;;;17.98;59.67;101881.72;5082773;27;45391;-91
2021/08/29 01:47:29;;;;;;;;;7.33;5.67;;;;;17.99;59.65;101880.81;5116953;27;45412;-90
2021/08/29 01:49:55;;;;;;;;;10.00;7.00;;;;;18.08;59.63;101899.50;5083082;27;45400;-89
2021/08/29 01:52:23;;;;;;;;;11.33;7.67;;;;;18.02;59.90;101883.50;5083194;27;48577;-90
2021/08/29 01:54:48;;;;;;;;;6.00;6.00;;;;;17.88;60.04;101855.06;5101729;27;45393;-90
2021/08/29 01:57:15;;;;;;;;;8.33;7.67;;;;;18.04;59.87;101895.91;5082952;27;45411;-91
2021/08/29 01:59:44;;;;;;;;;8.00;7.67;;;;;18.03;60.09;101896.81;5084794;27;45391;-90
2021/08/29 02:02:11;;;;;;;;;12.33;8.00;;;;;17.86;59.89;101866.56;5120448;27;47011;-90
2021/08/29 02:04:39;;;;;;;;;11.33;9.00;;;;;17.90;59.93;101879.91;5074776;27;45288;-91
2021/08/29 02:07:17;;;;;;;;;10.33;9.67;;;;;18.02;60.23;101891.50;5095615;27;45254;-90
2021/08/29 02:10:03;;;;;;;;;12.00;10.33;;;;;17.92;60.14;101882.56;5112623;27;45436;-90
2021/08/29 02:12:35;;;;;;;;;8.67;8.00;;;;;17.93;60.11;101879.94;5097815;27;47099;-90
2021/08/29 02:15:12;;;;;;;;;12.33;9.33;;;;;18.00;59.99;101901.25;5121872;27;44675;-91
2021/08/29 02:17:41;;;;;;;;;12.67;10.33;;;;;17.99;60.38;101902.09;5138799;27;45475;-91
2021/08/29 02:20:11;;;;;;;;;15.00;14.00;;;;;17.80;60.21;101880.72;5137479;27;44768;-91
2021/08/29 02:22:38;;;;;;;;;16.33;12.00;;;;;17.79;60.27;101881.59;5103058;27;47200;-92
2021/08/29 02:25:05;;;;;;;;;14.67;11.33;;;;;17.78;60.71;101883.38;5089401;27;45445;-91
2021/08/29 02:27:34;;;;;;;;;11.00;8.33;;;;;17.89;60.27;101909.16;5104996;27;45346;-91
2021/08/29 02:30:01;;;;;;;;;10.33;10.00;;;;;17.82;60.47;101900.25;5116769;27;45436;-90
2021/08/29 02:32:28;;;;;;;;;11.00;9.67;;;;;17.81;60.50;101901.13;5084188;27;46930;-90
2021/08/29 02:34:57;;;;;;;;;7.00;7.00;;;;;17.78;60.78;101896.69;5094576;27;45549;-89
2021/08/29 02:37:26;;;;;;;;;11.67;10.67;;;;;17.82;60.77;101903.81;5106654;27;45341;-89
2021/08/29 02:39:55;;;;;;;;;10.00;8.00;;;;;17.63;60.40;101876.22;5133370;27;45522;-90
2021/08/29 02:42:21;;;;;;;;;8.33;8.00;;;;;17.78;60.78;101907.31;5122261;27;45398;-90
2021/08/29 02:44:47;;;;;;;;;10.00;8.00;;;;;17.71;60.81;101893.09;5083639;27;45329;-90
2021/08/29 02:47:13;;;;;;;;;8.67;8.00;;;;;17.63;61.18;101878.88;5082403;27;45237;-91
2021/08/29 02:49:42;;;;;;;;;10.33;8.00;;;;;17.67;60.83;101888.63;5083210;27;45490;-91
2021/08/29 02:52:08;;;;;;;;;12.67;9.00;;;;;17.67;60.87;101882.41;5116558;27;48288;-90
2021/08/29 02:54:35;;;;;;;;;11.33;8.33;;;;;17.70;60.69;101891.31;5115911;27;45357;-90
2021/08/29 02:57:02;;;;;;;;;11.33;9.33;;;;;17.59;60.63;101869.09;5082030;27;45288;-91
2021/08/29 02:59:28;;;;;;;;;9.33;9.33;;;;;17.63;60.88;101884.19;5100213;27;45251;-90
2021/08/29 03:01:54;;;;;;;;;12.00;10.00;;;;;17.69;60.94;101900.19;5081276;27;46934;-91
2021/08/29 03:04:19;;;;;;;;;14.00;11.67;;;;;17.62;61.11;101893.03;5081713;27;45514;-91
2021/08/29 03:06:45;;;;;;;;;11.00;9.33;;;;;17.48;61.07;101869.00;5115712;27;45316;-91
2021/08/29 03:09:11;;;;;;;;;15.67;11.00;;;;;17.54;61.02;101877.03;5116102;27;45198;-90
2021/08/29 03:11:37;;;;;;;;;11.00;10.00;;;;;17.65;61.05;101906.34;5116588;27;48230;-91
2021/08/29 03:14:04;;;;;;;;;11.67;10.67;;;;;17.53;61.26;101882.34;5103127;27;45397;-90
2021/08/29 03:16:31;;;;;;;;;11.67;9.67;;;;;17.64;61.15;101903.69;5102490;27;45392;-91
2021/08/29 03:18:58;;;;;;;;;12.33;11.00;;;;;17.64;61.29;101896.59;5082296;27;45252;-90
2021/08/29 03:21:24;;;;;;;;;13.00;13.00;;;;;17.65;61.48;101906.34;5081764;27;47215;-91
2021/08/29 03:23:49;;;;;;;;;11.00;10.33;;;;;17.62;61.67;101885.03;5099984;27;45244;-90
2021/08/29 03:26:15;;;;;;;;;10.67;8.00;;;;;17.58;61.42;101872.63;5081774;27;45263;-89
2021/08/29 03:28:44;;;;;;;;;12.00;11.00;;;;;17.67;61.25;101888.63;5101778;27;45336;-90
2021/08/29 03:31:10;;;;;;;;;12.67;10.67;;;;;17.68;61.49;101881.56;5131051;27;47321;-91
2021/08/29 03:33:41;;;;;;;;;14.00;11.00;;;;;17.68;61.48;101885.09;5094069;27;45390;-90
2021/08/29 03:36:08;;;;;;;;;12.00;8.00;;;;;17.54;61.22;101860.19;5122939;27;45509;-90
2021/08/29 03:38:33;;;;;;;;;16.67;10.67;;;;;17.53;61.47;101854.00;5108468;27;45389;-89
2021/08/29 03:41:00;;;;;;;;;11.00;9.00;;;;;17.63;61.85;101870.88;5089341;27;47210;-90
2021/08/29 03:43:26;;;;;;;;;10.33;9.33;;;;;17.67;61.60;101871.78;5109915;27;45375;-90
2021/08/29 03:45:52;;;;;;;;;9.67;7.67;;;;;17.67;61.66;101877.09;5119047;27;45164;-90
2021/08/29 03:48:17;;;;;;;;;14.33;8.00;;;;;17.59;61.55;101861.13;5101462;27;45338;-89
2021/08/29 03:50:46;;;;;;;;;14.00;11.00;;;;;17.51;61.54;101841.56;5106770;27;45215;-91
2021/08/29 03:53:16;;;;;;;;;9.33;9.33;;;;;17.60;61.68;101854.91;5101220;27;45465;-90
2021/08/29 03:55:43;;;;;;;;;12.50;11.25;;;;;17.65;61.65;101863.81;5100122;27;45306;-90
2021/08/29 03:58:09;;;;;;;;;14.00;10.00;;;;;17.50;61.58;101832.69;5099249;27;45343;-91
2021/08/29 04:00:41;;;;;;;;;11.67;10.00;;;;;17.70;61.54;101866.50;5098631;27;46437;-91
2021/08/29 04:03:07;;;;;;;;;10.33;8.00;;;;;17.62;61.39;101857.59;5114601;27;45934;-91
2021/08/29 04:05:37;;;;;;;;;11.33;8.00;;;;;17.65;61.51;101869.13;5115173;27;45305;-91
2021/08/29 04:08:03;;;;;;;;;10.33;8.33;;;;;17.54;61.68;101850.44;5081024;27;45553;-91
2021/08/29 04:10:30;;;;;;;;;10.00;8.00;;;;;17.55;61.43;101846.03;5080505;27;47099;-92
2021/08/29 04:12:55;;;;;;;;;9.00;9.00;;;;;17.64;61.63;101867.34;5098600;27;45420;-91
2021/08/29 04:15:22;;;;;;;;;12.67;10.67;;;;;17.67;61.20;101872.69;5115093;27;45401;-91
2021/08/29 04:17:49;;;;;;;;;13.33;9.00;;;;;17.58;61.41;101862.88;5099055;27;45441;-90
2021/08/29 04:20:14;;;;;;;;;8.33;8.33;;;;;17.54;61.45;101858.41;5098663;27;45511;-91
2021/08/29 04:22:41;;;;;;;;;11.00;9.00;;;;;17.60;61.75;101870.84;5114444;27;46089;-91
2021/08/29 04:25:07;;;;;;;;;8.67;7.00;;;;;17.53;62.16;101859.31;5080420;27;45411;-90
2021/08/29 04:27:32;;;;;;;;;8.67;8.67;;;;;17.48;61.94;101856.63;5114415;27;45520;-91
2021/08/29 04:30:01;;;;;;;;;11.00;9.67;;;;;17.58;61.71;101867.28;5080223;27;47108;-90
2021/08/29 04:32:33;;;;;;;;;12.50;9.00;;;;;17.44;61.80;101857.47;5114240;27;45368;-90
2021/08/29 04:34:58;;;;;;;;;10.33;9.67;;;;;17.40;61.66;101853.03;5114700;27;45441;-90
2021/08/29 04:37:24;;;;;;;;;11.33;10.33;;;;;17.31;61.76;101850.28;5080312;27;45507;-90
2021/08/29 04:39:49;;;;;;;;;11.33;10.00;;;;;17.48;61.68;101887.63;5114834;27;47217;-90
2021/08/29 04:42:15;;;;;;;;;13.00;8.67;;;;;17.37;61.72;101871.59;5099137;27;45475;-89
2021/08/29 04:44:40;;;;;;;;;11.67;10.67;;;;;17.44;61.63;101883.16;5090358;27;45407;-90
2021/08/29 04:47:06;;;;;;;;;12.00;8.00;;;;;17.39;61.98;101885.78;5133369;27;45264;-90
2021/08/29 04:49:32;;;;;;;;;13.67;11.00;;;;;17.36;61.96;101886.63;5108637;27;45723;-90
2021/08/29 04:51:58;;;;;;;;;10.00;9.00;;;;;17.17;62.10;101851.09;5088343;27;45279;-89
2021/08/29 04:54:23;;;;;;;;;10.33;7.00;;;;;17.31;62.09;101871.53;5121954;27;45421;-90
2021/08/29 04:56:49;;;;;;;;;8.00;8.00;;;;;17.27;62.73;101864.44;5118479;27;45280;-88
2021/08/29 04:59:14;;;;;;;;;10.67;8.00;;;;;17.17;62.08;101844.88;5102374;27;45257;-91
2021/08/29 05:01:40;;;;;;;;;8.00;7.00;;;;;17.36;62.35;101875.16;5083285;27;45377;-89
2021/08/29 05:04:07;;;;;;;;;8.67;8.67;;;;;17.28;62.20;101860.91;5089576;27;45280;-89
2021/08/29 05:06:33;;;;;;;;;9.00;7.00;;;;;17.27;62.42;101867.09;5102341;27;45497;-91
2021/08/29 05:09:00;;;;;;;;;8.00;7.00;;;;;17.34;62.16;101874.25;5133812;27;47162;-91
2021/08/29 05:11:26;;;;;;;;;7.67;7.67;;;;;17.37;62.47;101874.25;5132911;27;45309;-90
2021/08/29 05:13:51;;;;;;;;;8.00;7.00;;;;;17.31;62.43;101860.91;5117164;27;45370;-91
2021/08/29 05:16:17;;;;;;;;;10.33;7.00;;;;;17.32;62.05;101862.72;5113107;27;45294;-90
2021/08/29 05:18:42;;;;;;;;;9.00;7.00;;;;;17.35;62.12;101870.69;5118171;27;46965;-90
2021/08/29 05:21:08;;;;;;;;;9.33;7.33;;;;;17.47;62.20;101889.38;5118208;27;45435;-90
2021/08/29 05:23:33;;;;;;;;;9.67;8.33;;;;;17.43;62.16;101881.41;5118408;27;45443;-90
2021/08/29 05:25:59;;;;;;;;;8.00;6.33;;;;;17.54;62.24;101892.97;5118326;27;45507;-90
2021/08/29 05:28:24;;;;;;;;;12.33;7.33;;;;;17.54;62.10;101890.31;5117689;27;47063;-90
2021/08/29 05:30:50;;;;;;;;;10.00;7.00;;;;;17.44;62.19;101881.41;5082986;27;45296;-91
2021/08/29 05:33:15;;;;;;;;;11.67;9.00;;;;;17.42;62.32;101876.94;5117707;27;45532;-91
2021/08/29 05:35:41;;;;;;;;;6.00;6.00;;;;;17.43;61.97;101879.59;5084085;27;45741;-90
2021/08/29 05:38:06;;;;;;;;;12.33;10.67;;;;;17.56;62.13;101900.97;5117322;27;48141;-90
2021/08/29 05:40:32;;;;;;;;;10.00;7.00;;;;;17.55;62.15;101889.47;5083482;27;45414;-90
2021/08/29 05:42:57;;;;;;;;;9.33;8.00;;;;;17.59;62.24;101901.00;5101583;27;45395;-91
2021/08/29 05:45:25;;;;;;;;;9.33;9.00;;;;;17.58;61.98;101888.56;5083797;27;45448;-90
2021/08/29 05:47:50;;;;;;;;;10.33;9.00;;;;;17.57;62.23;101887.69;5118068;27;47077;-91
2021/08/29 05:50:16;;;;;;;;;12.33;9.00;;;;;17.47;62.16;101862.81;5083884;27;45407;-91
2021/08/29 05:52:41;;;;;;;;;8.67;7.00;;;;;17.59;62.19;101882.38;5083572;27;45323;-91
2021/08/29 05:55:07;;;;;;;;;12.33;9.33;;;;;17.58;61.88;101884.16;5117871;27;45482;-91
2021/08/29 05:57:33;;;;;;;;;11.00;10.33;;;;;17.57;62.04;101881.50;5101921;27;46456;-91
2021/08/29 06:00:00;;;;;;;;;9.67;8.00;;;;;17.53;61.98;101869.94;5083210;27;45322;-90
2021/08/29 06:02:28;;;;;;;;;12.67;10.33;;;;;17.51;62.00;101871.72;5083602;27;45332;-90
2021/08/29 06:04:53;;;;;;;;;11.67;10.00;;;;;17.60;62.05;101881.50;5103518;27;45267;-90
2021/08/29 06:07:19;;;;;;;;;9.00;8.00;;;;;17.51;61.95;101858.41;5121610;27;47223;-90
2021/08/29 06:09:45;;;;;;;;;9.33;7.33;;;;;17.66;62.08;101884.19;5100116;27;44989;-90
2021/08/29 06:12:10;;;;;;;;;13.00;7.33;;;;;17.67;62.06;101880.66;5086795;27;44881;-90
2021/08/29 06:14:35;;;;;;;;;9.00;9.00;;;;;17.69;62.46;101884.22;5086974;27;45820;-91
2021/08/29 06:17:01;;;;;;;;;10.67;8.00;;;;;17.59;62.27;101863.78;5082070;27;46927;-90
2021/08/29 06:19:26;;;;;;;;;10.33;8.33;;;;;17.60;62.21;101860.22;5101305;27;45317;-91
2021/08/29 06:21:52;;;;;;;;;11.00;8.67;;;;;17.71;61.99;101869.16;5116655;27;45374;-91
2021/08/29 06:24:17;;;;;;;;;10.00;7.33;;;;;17.78;62.12;101882.50;5082615;27;45593;-91
2021/08/29 06:26:43;;;;;;;;;9.00;6.00;;;;;17.71;62.15;101871.81;5082173;27;48010;-91
2021/08/29 06:29:10;;;;;;;;;7.67;7.00;;;;;17.85;61.26;101892.31;5116452;27;45519;-90
2021/08/29 06:31:35;;;;;;;;;7.33;6.33;;;;;17.83;61.83;101880.72;5082309;27;45230;-90
2021/08/29 06:34:01;;;;;;;;;5.00;5.00;;;;;17.88;61.85;101892.31;5082759;27;45464;-90
2021/08/29 06:36:26;;;;;;;;;8.00;6.67;;;;;17.89;61.82;101885.22;5116678;27;48170;-90
2021/08/29 06:38:52;;;;;;;;;6.33;6.33;;;;;17.78;61.62;101866.53;5116485;27;45542;-90
2021/08/29 06:41:17;;;;;;;;;7.00;6.00;;;;;17.83;61.90;101867.44;5085076;27;45390;-90
2021/08/29 06:43:43;;;;;;;;;6.67;6.67;;;;;17.97;61.75;101891.47;5085075;27;45613;-91
2021/08/29 06:46:08;;;;;;;;;10.00;8.67;;;;;17.96;61.90;101881.69;5082375;27;47209;-90
2021/08/29 06:48:34;;;;;;;;;6.33;6.33;;;;;18.04;61.71;101889.72;5115887;27;45538;-90
2021/08/29 06:51:00;;;;;;;;;6.00;6.00;;;;;17.94;61.42;101879.03;5116385;27;45419;-91
2021/08/29 06:53:26;;;;;;;;;8.33;8.33;;;;;18.02;61.29;101888.84;5116511;27;45538;-90
2021/08/29 06:55:52;;;;;;;;;9.67;8.00;;;;;18.11;61.38;101904.81;5129662;27;47042;-90
2021/08/29 06:58:17;;;;;;;;;9.67;6.67;;;;;18.09;61.31;101901.28;5100589;27;45191;-90
2021/08/29 07:00:43;;;;;;;;;6.33;6.00;;;;;18.12;61.28;101901.28;5137588;27;45245;-90
2021/08/29 07:03:08;;;;;;;;;12.67;8.00;;;;;18.01;61.14;101879.97;5082895;27;45268;-91
2021/08/29 07:05:34;;;;;;;;;7.67;6.33;;;;;18.06;61.37;101886.16;5084208;27;46914;-91
2021/08/29 07:07:59;;;;;;;;;7.00;7.00;;;;;18.06;61.22;101880.84;5120822;27;44650;-92
2021/08/29 07:10:25;;;;;;;;;6.00;6.00;;;;;18.17;61.05;101894.25;5110159;27;44734;-91
2021/08/29 07:12:50;;;;;;;;;9.00;6.00;;;;;18.07;60.81;101876.44;5110635;27;45852;-90
2021/08/29 07:15:16;;;;;;;;;8.00;7.00;;;;;18.24;61.13;101904.91;5127304;27;45946;-90
2021/08/29 07:17:44;;;;;;;;;6.67;6.67;;;;;18.19;60.84;101899.56;5103984;27;44823;-90
2021/08/29 07:20:10;;;;;;;;;6.67;6.00;;;;;18.08;60.32;101870.25;5107572;27;44724;-91
2021/08/29 07:22:37;;;;;;;;;6.33;6.00;;;;;18.09;60.82;101882.66;5109260;27;44795;-90
2021/08/29 07:25:03;;;;;;;;;10.33;7.00;;;;;18.17;60.63;101899.56;5125576;27;45460;-89
2021/08/29 07:27:29;;;;;;;;;7.33;6.00;;;;;17.96;60.69;101855.09;5127502;27;44774;-89
2021/08/29 07:29:55;;;;;;;;;5.67;5.33;;;;;18.19;60.69;101894.25;5145008;27;44755;-89
2021/08/29 07:32:20;;;;;;;;;7.00;6.00;;;;;18.07;60.80;101881.75;5110164;27;44815;-91
2021/08/29 07:34:46;;;;;;;;;7.33;5.33;;;;;18.07;61.10;101876.44;5127271;27;45202;-91
2021/08/29 07:37:11;;;;;;;;;10.00;8.00;;;;;18.04;60.76;101871.09;5110077;27;44736;-90
2021/08/29 07:39:37;;;;;;;;;6.33;6.33;;;;;18.10;60.74;101880.88;5144706;27;44770;-89
2021/08/29 07:42:02;;;;;;;;;8.67;7.00;;;;;18.17;60.46;101896.91;5143419;27;45021;-90
2021/08/29 07:44:28;;;;;;;;;11.33;7.67;;;;;18.14;60.54;101898.63;5108200;27;47287;-90
2021/08/29 07:46:54;;;;;;;;;8.00;7.33;;;;;18.22;60.56;101906.69;5103942;28;44974;-91
2021/08/29 07:49:22;;;;;;;;;6.00;6.00;;;;;18.26;60.49;101905.81;5086891;27;44809;-90
2021/08/29 07:51:47;;;;;;;;;5.00;5.00;;;;;18.22;60.94;101898.69;5104854;27;44852;-91
2021/08/29 07:54:13;;;;;;;;;8.33;7.00;;;;;18.33;60.84;101907.63;5091608;28;45464;-85
2021/08/29 07:56:38;;;;;;;;;8.00;7.00;;;;;18.37;60.93;101908.50;5092274;28;45117;-82
2021/08/29 07:59:04;;;;;;;;;8.67;7.00;;;;;18.46;60.78;101910.31;5093290;28;45252;-82
2021/08/29 08:01:29;;;;;;;;;7.67;6.33;;;;;18.49;60.48;101905.88;5092992;28;45247;-81
2021/08/29 08:03:54;;;;;;;;;6.00;6.00;;;;;18.57;60.36;101908.56;5093428;28;46536;-85
2021/08/29 08:06:20;;;;;;;;;6.33;5.33;;;;;18.60;60.22;101902.38;5093776;28;44724;-84
2021/08/29 08:08:45;;;;;;;;;8.67;7.00;;;;;18.67;59.83;101911.28;5086996;28;45390;-83
2021/08/29 08:11:11;;;;;;;;;6.67;5.33;;;;;18.68;59.99;101908.59;5088166;28;45772;-82
2021/08/29 08:13:36;;;;;;;;;8.00;6.67;;;;;18.62;59.78;101889.94;5088217;28;45516;-82
2021/08/29 08:16:02;;;;;;;;;7.00;6.00;;;;;18.71;59.49;101895.31;5091705;28;45256;-81
2021/08/29 08:18:27;;;;;;;;;11.00;7.00;;;;;18.75;59.50;101906.84;5093556;28;44772;-83
2021/08/29 08:20:54;;;;;;;;;6.67;6.33;;;;;18.77;59.65;101904.19;5101133;28;45326;-82
2021/08/29 08:23:21;;;;;;;;;4.67;4.67;;;;;18.73;59.53;101892.63;5100829;28;46152;-82
2021/08/29 08:25:46;;;;;;;;;8.00;5.00;;;;;18.86;59.57;101904.19;5099699;28;45369;-81
2021/08/29 08:28:12;;;;;;;;;9.67;6.33;;;;;18.86;59.49;101894.44;5100408;28;45836;-83
2021/08/29 08:30:37;;;;;;;;;8.00;6.00;;;;;18.90;59.18;101903.31;5100979;28;44680;-82
2021/08/29 08:33:02;;;;;;;;;9.33;8.33;;;;;18.88;59.30;101893.53;5099389;28;45442;-82
2021/08/29 08:35:28;;;;;;;;;6.00;5.67;;;;;18.89;59.22;101898.88;5100265;28;45224;-84
2021/08/29 08:37:53;;;;;;;;;7.33;5.67;;;;;18.93;59.06;101900.66;5101851;28;44713;-82
2021/08/29 08:40:23;;;;;;;;;8.00;8.00;;;;;18.92;58.88;101909.53;5101281;28;44799;-81
2021/08/29 08:42:50;;;;;;;;;6.33;5.33;;;;;18.95;58.91;101919.31;5084982;28;46186;-84
2021/08/29 08:45:15;;;;;;;;;9.67;6.00;;;;;18.92;58.76;101905.97;5099021;27;44715;-84
2021/08/29 08:47:44;;;;;;;;;3.00;3.00;;;;;19.01;59.10;101907.78;5109360;27;45360;-90
2021/08/29 08:50:13;;;;;;;;;5.33;4.00;;;;;19.08;58.82;101912.19;5110130;27;45388;-91
2021/08/29 08:52:39;;;;;;;;;5.00;5.00;;;;;19.22;58.83;101909.59;5107614;27;45350;-88
2021/08/29 08:55:06;;;;;;;;;6.33;6.00;;;;;19.31;59.68;101908.72;5104767;27;45378;-84
2021/08/29 08:57:32;;;;;;;;;7.33;4.67;;;;;19.38;60.27;101906.91;5104383;27;45373;-81
2021/08/29 08:59:57;;;;;;;;;8.00;6.33;;;;;19.42;59.31;101908.69;5102018;27;45349;-87
2021/08/29 09:02:24;;;;;;;;;6.67;5.00;;;;;19.38;58.28;101901.56;5084016;27;48177;-87
2021/08/29 09:04:50;;;;;;;;;7.33;6.00;;;;;19.35;58.13;101898.91;5102215;27;45320;-87
2021/08/29 09:07:16;;;;;;;;;6.33;4.33;;;;;19.33;58.47;101902.47;5085850;27;45309;-85
2021/08/29 09:09:41;;;;;;;;;6.00;4.67;;;;;19.42;58.33;101914.91;5109979;27;44915;-84
2021/08/29 09:12:07;;;;;;;;;6.67;6.33;;;;;19.37;58.67;101899.81;5087169;27;47910;-85
2021/08/29 09:14:43;;;;;;;;;5.33;4.67;;;;;19.44;58.06;101907.78;5108013;27;45446;-86
2021/08/29 09:17:32;;;;;;;;;3.67;3.67;;;;;19.47;58.26;101906.00;5115853;27;45409;-86
2021/08/29 09:20:27;;;;;;;;;5.00;4.33;;;;;19.50;58.37;101912.22;5113252;27;45321;-85
2021/08/29 09:22:56;;;;;;;;;6.67;5.00;;;;;19.40;57.79;101882.03;5109125;27;45312;-86
2021/08/29 09:25:29;;;;;;;;;5.33;5.33;;;;;19.44;57.44;101894.47;5104996;27;45339;-85
2021/08/29 09:27:59;;;;;;;;;5.33;5.00;;;;;19.53;58.18;101909.56;5102664;27;45275;-85
2021/08/29 09:30:29;;;;;;;;;5.00;5.00;;;;;19.54;57.87;101906.00;5101060;27;45284;-85
2021/08/29 09:33:01;;;;;;;;;6.00;5.00;;;;;19.58;58.00;101904.22;5100337;27;45568;-85
2021/08/29 09:35:31;;;;;;;;;4.33;4.33;;;;;19.59;57.61;101905.09;5100232;27;45483;-86
2021/08/29 09:37:58;;;;;;;;;6.00;4.00;;;;;19.63;57.07;101905.09;5100483;27;45502;-86
2021/08/29 09:40:31;;;;;;;;;6.67;5.00;;;;;19.61;57.09;101901.53;5099507;27;45349;-87
2021/08/29 09:42:58;;;;;;;;;6.00;4.67;;;;;19.53;57.78;101880.22;5082103;27;48143;-86
2021/08/29 09:45:28;;;;;;;;;5.00;5.00;;;;;19.69;57.67;101901.56;5101158;27;45432;-85
2021/08/29 09:47:58;;;;;;;;;5.00;5.00;;;;;19.72;57.56;101889.97;5084311;27;45330;-86
2021/08/29 09:50:28;;;;;;;;;7.00;4.00;;;;;19.78;58.46;101896.19;5084272;27;45656;-86
2021/08/29 09:53:02;;;;;;;;;6.67;5.67;;;;;19.84;57.75;101895.25;5106710;27;46092;-88
2021/08/29 09:55:33;;;;;;;;;9.00;5.00;;;;;19.85;56.90;101896.16;5100934;27;45350;-87
2021/08/29 09:57:59;;;;;;;;;7.33;6.00;;;;;19.83;56.83;101890.84;5101810;27;45263;-89
2021/08/29 10:00:25;;;;;;;;;7.00;4.67;;;;;19.87;56.55;101891.69;5101975;27;45427;-88
2021/08/29 10:03:04;;;;;;;;;5.33;4.33;;;;;19.89;57.06;101892.59;5101688;27;46240;-88
2021/08/29 10:05:30;;;;;;;;;7.00;5.00;;;;;19.91;56.79;101890.81;5101057;27;45263;-87
2021/08/29 10:08:06;;;;;;;;;5.67;5.67;;;;;19.95;56.91;101897.00;5100351;27;45258;-86
2021/08/29 10:10:35;;;;;;;;;8.00;6.00;;;;;19.95;56.90;101887.22;5100158;27;45641;-87
2021/08/29 10:13:01;;;;;;;;;5.67;5.00;;;;;20.00;56.83;101893.44;5099773;27;46544;-87
2021/08/29 10:15:27;;;;;;;;;6.67;6.67;;;;;19.98;55.63;101892.56;5100467;27;45315;-87
2021/08/29 10:17:57;;;;;;;;;6.33;5.67;;;;;20.01;55.74;101894.31;5100636;27;45374;-87
2021/08/29 10:20:25;;;;;;;;;5.33;4.67;;;;;19.93;55.71;101889.00;5100433;27;45317;-88
2021/08/29 10:22:51;;;;;;;;;6.00;6.00;;;;;19.92;55.71;101897.94;5081377;27;47998;-85
2021/08/29 10:25:18;;;;;;;;;6.67;6.67;;;;;19.92;56.11;101889.03;5099492;27;45454;-88
2021/08/29 10:27:59;;;;;;;;;8.33;7.33;;;;;19.94;55.91;101889.91;5100443;27;45299;-86
2021/08/29 10:30:27;;;;;;;;;10.33;6.67;;;;;19.95;56.24;101895.22;5081916;27;45292;-85
2021/08/29 10:33:00;;;;;;;;;7.00;7.00;;;;;20.02;55.59;101897.00;5100336;27;45304;-85
2021/08/29 10:35:25;;;;;;;;;8.67;8.00;;;;;19.99;55.60;101877.41;5099591;27;45334;-87
2021/08/29 10:37:51;;;;;;;;;7.33;7.33;;;;;20.21;55.49;101896.97;5097730;27;45561;-86
2021/08/29 10:40:18;;;;;;;;;6.00;6.00;;;;;20.26;55.56;101883.59;5099929;27;45393;-86
2021/08/29 10:42:44;;;;;;;;;11.00;7.00;;;;;20.44;55.84;101892.38;5098871;27;46332;-87
2021/08/29 10:45:13;;;;;;;;;6.33;6.33;;;;;20.62;56.01;101886.06;5100488;27;45336;-86
2021/08/29 10:47:42;;;;;;;;;7.67;7.67;;;;;20.81;55.90;101891.28;5101277;27;45416;-85
2021/08/29 10:50:09;;;;;;;;;8.33;7.00;;;;;21.00;55.82;101872.47;5101701;27;45284;-87
2021/08/29 10:52:36;;;;;;;;;7.00;7.00;;;;;21.20;54.54;101879.41;5100334;27;45343;-87
2021/08/29 10:55:06;;;;;;;;;5.00;5.00;;;;;21.21;53.90;101871.41;5084165;27;45424;-87
2021/08/29 10:57:32;;;;;;;;;7.00;7.00;;;;;21.32;54.99;101873.94;5062745;28;45382;-87
2021/08/29 11:00:04;;;;;;;;;7.00;7.00;;;;;21.36;54.03;101877.50;5081918;28;45399;-86
2021/08/29 11:02:43;;;;;;;;;8.00;7.00;;;;;21.37;54.01;101861.44;5068646;28;47196;-87
2021/08/29 11:05:13;;;;;;;;;8.00;7.00;;;;;21.41;54.15;101864.94;5086086;28;44745;-88
2021/08/29 11:07:39;;;;;;;;;7.67;7.00;;;;;21.47;54.40;101861.34;5064227;28;45488;-85
2021/08/29 11:10:07;;;;;;;;;8.00;8.00;;;;;21.53;53.46;101858.59;5081520;28;45349;-85
2021/08/29 11:12:33;;;;;;;;;6.33;6.00;;;;;21.55;53.69;101866.59;5088039;28;45243;-85
2021/08/29 11:15:01;;;;;;;;;6.33;6.33;;;;;21.58;53.54;101862.09;5091374;28;44793;-86
2021/08/29 11:17:33;;;;;;;;;8.67;7.00;;;;;21.58;53.34;101848.72;5083267;28;45370;-85
2021/08/29 11:20:01;;;;;;;;;8.00;6.00;;;;;21.65;53.50;101857.56;5061265;28;45530;-87
2021/08/29 11:22:28;;;;;;;;;8.00;6.00;;;;;21.62;52.69;101842.44;5078916;28;46167;-87